Observation data for Tulia on 02/14/2018      Previous  Date  Next       Current Mesonet Observations  Soil Data  Daily Summary Page  Observations in Plain Language
KTIS 140600Z 21009KT 07/02 A3022 RMK A01 T00720018  RH  069%=      5-min Rain = 0
KTIS 140605Z 21010KT 07/02 A3021 RMK A01 T00740019  RH  069%=      5-min Rain = 0
KTIS 140610Z 22011KT 08/02 A3021 RMK A01 T00770021  RH  069%=      5-min Rain = 0
KTIS 140615Z 22010KT 08/02 A3021 RMK A01 T00790023  RH  068%=      5-min Rain = 0
KTIS 140620Z 22010KT 08/02 A3021 RMK A01 T00790023  RH  068%=      5-min Rain = 0
KTIS 140625Z 21011KT 08/02 A3021 RMK A01 T00810023  RH  068%=      5-min Rain = 0
KTIS 140630Z 21012KT 08/02 A3021 RMK A01 T00840024  RH  067%=      5-min Rain = 0
KTIS 140635Z 21012KT 09/03 A3021 RMK A01 T00860025  RH  066%=      5-min Rain = 0
KTIS 140640Z 21012KT 09/03 A3021 RMK A01 T00870025  RH  066%=      5-min Rain = 0
KTIS 140645Z 21013KT 09/03 A3021 RMK A01 T00870025  RH  066%=      5-min Rain = 0
KTIS 140650Z 21013KT 09/02 A3021 RMK A01 T00870024  RH  066%=      5-min Rain = 0
KTIS 140655Z 21013KT 09/02 A302 RMK A01 T00850024  RH  066%=      5-min Rain = 0
KTIS 140700Z 21013KT 08/02 A302 RMK A01 T00840023  RH  066%=      5-min Rain = 0
KTIS 140705Z 21012KT 08/02 A302 RMK A01 T00830022  RH  066%=      5-min Rain = 0
KTIS 140710Z 21012KT 08/02 A302 RMK A01 T00830022  RH  066%=      5-min Rain = 0
KTIS 140715Z 21012KT 08/02 A302 RMK A01 T00830023  RH  066%=      5-min Rain = 0
KTIS 140720Z 21012KT 09/02 A302 RMK A01 T00850023  RH  066%=      5-min Rain = 0
KTIS 140725Z 22011KT 09/02 A302 RMK A01 T00860023  RH  065%=      5-min Rain = 0
KTIS 140730Z 22011KT 09/02 A302 RMK A01 T00870023  RH  065%=      5-min Rain = 0
KTIS 140735Z 22011KT 09/02 A302 RMK A01 T00860022  RH  065%=      5-min Rain = 0
KTIS 140740Z 22010KT 08/02 A302 RMK A01 T00830021  RH  065%=      5-min Rain = 0
KTIS 140745Z 23010KT 08/02 A302 RMK A01 T00820020  RH  066%=      5-min Rain = 0
KTIS 140750Z 23011KT 08/02 A302 RMK A01 T00810020  RH  066%=      5-min Rain = 0
KTIS 140755Z 23011KT 08/02 A302 RMK A01 T00840021  RH  065%=      5-min Rain = 0
KTIS 140800Z 23011KT 09/02 A302 RMK A01 T00850021  RH  065%=      5-min Rain = 0
KTIS 140805Z 23011KT 09/02 A302 RMK A01 T00850021  RH  065%=      5-min Rain = 0
KTIS 140810Z 23012KT 08/02 A302 RMK A01 T00830020  RH  065%=      5-min Rain = 0
KTIS 140815Z 23012KT 08/02 A302 RMK A01 T00830019  RH  065%=      5-min Rain = 0
KTIS 140820Z 22013KT 08/02 A302 RMK A01 T00820019  RH  065%=      5-min Rain = 0
KTIS 140825Z 22012KT 08/02 A302 RMK A01 T00800018  RH  065%=      5-min Rain = 0
KTIS 140830Z 22012KT 08/02 A302 RMK A01 T00770017  RH  066%=      5-min Rain = 0
KTIS 140835Z 23010KT 08/02 A3019 RMK A01 T00760016  RH  067%=      5-min Rain = 0
KTIS 140840Z 23010KT 08/02 A3019 RMK A01 T00750016  RH  067%=      5-min Rain = 0
KTIS 140845Z 23011KT 08/02 A3019 RMK A01 T00750016  RH  067%=      5-min Rain = 0
KTIS 140850Z 23010KT 08/02 A3019 RMK A01 T00750016  RH  067%=      5-min Rain = 0
KTIS 140855Z 24010KT 08/02 A3018 RMK A01 T00750016  RH  067%=      5-min Rain = 0
KTIS 140900Z 23011KT 08/02 A3018 RMK A01 T00760015  RH  066%=      5-min Rain = 0
KTIS 140905Z 23011KT 08/01 A3018 RMK A01 T00750014  RH  066%=      5-min Rain = 0
KTIS 140910Z 24011KT 08/01 A3018 RMK A01 T00750013  RH  066%=      5-min Rain = 0
KTIS 140915Z 24012KT 08/01 A3018 RMK A01 T00750012  RH  065%=      5-min Rain = 0
KTIS 140920Z 24011KT 08/01 A3018 RMK A01 T00750012  RH  065%=      5-min Rain = 0
KTIS 140925Z 25011KT 08/01 A3017 RMK A01 T00760012  RH  065%=      5-min Rain = 0
KTIS 140930Z 24009KT 08/01 A3017 RMK A01 T00760012  RH  064%=      5-min Rain = 0
KTIS 140935Z 25008KT 07/01 A3018 RMK A01 T00740011  RH  065%=      5-min Rain = 0
KTIS 140940Z 24009KT 07/01 A3018 RMK A01 T00730010  RH  065%=      5-min Rain = 0
KTIS 140945Z 24010KT 07/01 A3017 RMK A01 T00720010  RH  065%=      5-min Rain = 0
KTIS 140950Z 23010KT 07/01 A3017 RMK A01 T00710010  RH  066%=      5-min Rain = 0
KTIS 140955Z 23011KT 07/01 A3017 RMK A01 T00690009  RH  066%=      5-min Rain = 0
KTIS 141000Z 23011KT 07/01 A3017 RMK A01 T00680008  RH  066%=      5-min Rain = 0
KTIS 141005Z 23011KT 07/01 A3017 RMK A01 T00660008  RH  067%=      5-min Rain = 0
KTIS 141010Z 23010KT 07/01 A3017 RMK A01 T00650008  RH  067%=      5-min Rain = 0
KTIS 141015Z 24011KT 07/01 A3017 RMK A01 T00670008  RH  067%=      5-min Rain = 0
KTIS 141020Z 23011KT 07/01 A3017 RMK A01 T00700008  RH  065%=      5-min Rain = 0
KTIS 141025Z 24010KT 07/01 A3017 RMK A01 T00700008  RH  065%=      5-min Rain = 0
KTIS 141030Z 23009KT 07/01 A3017 RMK A01 T00680007  RH  066%=      5-min Rain = 0
KTIS 141035Z 22009KT 06/01 A3016 RMK A01 T00640006  RH  067%=      5-min Rain = 0
KTIS 141040Z 22009KT 06/01 A3016 RMK A01 T00600005  RH  069%=      5-min Rain = 0
KTIS 141045Z 23008KT 06/01 A3016 RMK A01 T00580005  RH  069%=      5-min Rain = 0
KTIS 141050Z 23008KT 06/01 A3016 RMK A01 T00580005  RH  070%=      5-min Rain = 0
KTIS 141055Z 22008KT 06/00 A3016 RMK A01 T00550004  RH  070%=      5-min Rain = 0
KTIS 141100Z 22009KT 05/00 A3017 RMK A01 T00520003  RH  071%=      5-min Rain = 0
KTIS 141105Z 23009KT 05/00 A3017 RMK A01 T00510003  RH  072%=      5-min Rain = 0
KTIS 141110Z 22008KT 05/00 A3017 RMK A01 T00500002  RH  072%=      5-min Rain = 0
KTIS 141115Z 22009KT 05/00 A3017 RMK A01 T00500002  RH  072%=      5-min Rain = 0
KTIS 141120Z 22010KT 05/00 A3017 RMK A01 T00510001  RH  071%=      5-min Rain = 0
KTIS 141125Z 23009KT 05/00 A3017 RMK A01 T00510001  RH  071%=      5-min Rain = 0
KTIS 141130Z 23009KT 05/M00 A3017 RMK A01 T00491001  RH  071%=      5-min Rain = 0
KTIS 141135Z 22009KT 05/M00 A3016 RMK A01 T00481001  RH  071%=      5-min Rain = 0
KTIS 141140Z 21010KT 05/M00 A3017 RMK A01 T00481001  RH  071%=      5-min Rain = 0
KTIS 141145Z 22009KT 05/M00 A3017 RMK A01 T00471002  RH  072%=      5-min Rain = 0
KTIS 141150Z 22010KT 05/M00 A3017 RMK A01 T00461002  RH  072%=      5-min Rain = 0
KTIS 141155Z 21010KT 05/M00 A3017 RMK A01 T00451002  RH  072%=      5-min Rain = 0
KTIS 141200Z 22010KT 05/M00 A3017 RMK A01 T00451003  RH  072%=      5-min Rain = 0
KTIS 141205Z 22010KT 04/M00 A3017 RMK A01 T00441003  RH  072%=      5-min Rain = 0
KTIS 141210Z 23010KT 04/M00 A3017 RMK A01 T00441003  RH  072%=      5-min Rain = 0
KTIS 141215Z 23010KT 05/M00 A3017 RMK A01 T00451003  RH  072%=      5-min Rain = 0
KTIS 141220Z 22010KT 05/M00 A3017 RMK A01 T00471003  RH  071%=      5-min Rain = 0
KTIS 141225Z 22010KT 05/M00 A3017 RMK A01 T00471003  RH  071%=      5-min Rain = 0
KTIS 141230Z 23009KT 05/M00 A3017 RMK A01 T00461004  RH  071%=      5-min Rain = 0
KTIS 141235Z 23009KT 05/M00 A3017 RMK A01 T00451004  RH  071%=      5-min Rain = 0
KTIS 141240Z 23010KT 05/M00 A3017 RMK A01 T00471004  RH  071%=      5-min Rain = 0
KTIS 141245Z 23010KT 05/M00 A3018 RMK A01 T00481004  RH  070%=      5-min Rain = 0
KTIS 141250Z 23010KT 05/M01 A3017 RMK A01 T00471005  RH  070%=      5-min Rain = 0
KTIS 141255Z 23009KT 05/M01 A3017 RMK A01 T00461005  RH  070%=      5-min Rain = 0
KTIS 141300Z 23009KT 05/M01 A3017 RMK A01 T00451006  RH  070%=      5-min Rain = 0
KTIS 141305Z 24009KT 04/M01 A3017 RMK A01 T00441007  RH  071%=      5-min Rain = 0
KTIS 141310Z 24009KT 04/M01 A3017 RMK A01 T00431007  RH  071%=      5-min Rain = 0
KTIS 141315Z 24009KT 04/M01 A3017 RMK A01 T00431008  RH  070%=      5-min Rain = 0
KTIS 141320Z 22009KT 04/M01 A3017 RMK A01 T00421009  RH  070%=      5-min Rain = 0
KTIS 141325Z 23009KT 04/M01 A3017 RMK A01 T00381010  RH  072%=      5-min Rain = 0
KTIS 141330Z 23009KT 04/M01 A3016 RMK A01 T00351011  RH  073%=      5-min Rain = 0
KTIS 141335Z 23009KT 03/M01 A3017 RMK A01 T00331012  RH  073%=      5-min Rain = 0
KTIS 141340Z 22010KT 03/M01 A3017 RMK A01 T00341012  RH  073%=      5-min Rain = 0
KTIS 141345Z 22010KT 03/M01 A3017 RMK A01 T00321013  RH  073%=      5-min Rain = 0
KTIS 141350Z 22010KT 03/M01 A3017 RMK A01 T00311013  RH  074%=      5-min Rain = 0
KTIS 141355Z 22009KT 03/M01 A3017 RMK A01 T00311013  RH  074%=      5-min Rain = 0
KTIS 141400Z 22009KT 03/M01 A3017 RMK A01 T00301014  RH  074%=      5-min Rain = 0
KTIS 141405Z 23009KT 03/M01 A3016 RMK A01 T00301014  RH  074%=      5-min Rain = 0
KTIS 141410Z 23009KT 03/M01 A3016 RMK A01 T00301014  RH  074%=      5-min Rain = 0
KTIS 141415Z 22009KT 03/M01 A3017 RMK A01 T00321013  RH  073%=      5-min Rain = 0
KTIS 141420Z 23009KT 04/M01 A3016 RMK A01 T00351013  RH  072%=      5-min Rain = 0
KTIS 141425Z 22010KT 04/M01 A3016 RMK A01 T00371012  RH  071%=      5-min Rain = 0
KTIS 141430Z 23009KT 04/M01 A3016 RMK A01 T00401012  RH  070%=      5-min Rain = 0
KTIS 141435Z 23010KT 04/M01 A3016 RMK A01 T00421011  RH  069%=      5-min Rain = 0
KTIS 141440Z 22010KT 05/M01 A3016 RMK A01 T00451010  RH  068%=      5-min Rain = 0
KTIS 141445Z 23010KT 05/M01 A3016 RMK A01 T00491009  RH  067%=      5-min Rain = 0
KTIS 141450Z 23010KT 05/M01 A3017 RMK A01 T00531008  RH  065%=      5-min Rain = 0
KTIS 141455Z 23010KT 06/M01 A3017 RMK A01 T00581008  RH  064%=      5-min Rain = 0
KTIS 141500Z 23010KT 06/M01 A3017 RMK A01 T00601008  RH  063%=      5-min Rain = 0
KTIS 141505Z 23010KT 06/M01 A3017 RMK A01 T00611006  RH  063%=      5-min Rain = 0
KTIS 141510Z 23010KT 06/M01 A3017 RMK A01 T00641005  RH  062%=      5-min Rain = 0
KTIS 141515Z 23010KT 07/M01 A3017 RMK A01 T00681005  RH  061%=      5-min Rain = 0
KTIS 141520Z 23011KT 07/M00 A3017 RMK A01 T00721004  RH  059%=      5-min Rain = 0
KTIS 141525Z 23012KT 08/M00 A3017 RMK A01 T00761004  RH  058%=      5-min Rain = 0
KTIS 141530Z 23011KT 08/M00 A3018 RMK A01 T00791003  RH  056%=      5-min Rain = 0
KTIS 141535Z 23010KT 08/M00 A3018 RMK A01 T00841004  RH  055%=      5-min Rain = 0
KTIS 141540Z 23011KT 09/M00 A3018 RMK A01 T00901004  RH  052%=      5-min Rain = 0
KTIS 141545Z 21012KT 09/M00 A3018 RMK A01 T00941004  RH  051%=      5-min Rain = 0
KTIS 141550Z 21010KT 10/M00 A3018 RMK A01 T00991003  RH  049%=      5-min Rain = 0
KTIS 141555Z 21012KT 10/M01 A3018 RMK A01 T01021005  RH  048%=      5-min Rain = 0
KTIS 141600Z 22012KT 11/M01 A3018 RMK A01 T01051005  RH  047%=      5-min Rain = 0
KTIS 141605Z 21012KT 11/M00 A3017 RMK A01 T01091004  RH  046%=      5-min Rain = 0
KTIS 141610Z 21013KT 11/M00 A3017 RMK A01 T01111004  RH  045%=      5-min Rain = 0
KTIS 141615Z 21014KT 11/M01 A3017 RMK A01 T01121006  RH  045%=      5-min Rain = 0
KTIS 141620Z 21012KT 12/M01 A3017 RMK A01 T01151005  RH  044%=      5-min Rain = 0
KTIS 141625Z 21013KT 12/M01 A3017 RMK A01 T01191009  RH  042%=      5-min Rain = 0
KTIS 141630Z 22012KT 12/M01 A3017 RMK A01 T01241010  RH  040%=      5-min Rain = 0
KTIS 141635Z 22012KT 13/M01 A3017 RMK A01 T01301013  RH  038%=      5-min Rain = 0
KTIS 141640Z 22011KT 14/M01 A3017 RMK A01 T01361013  RH  036%=      5-min Rain = 0
KTIS 141645Z 22011KT 14/M02 A3017 RMK A01 T01411016  RH  034%=      5-min Rain = 0
KTIS 141650Z 22012G17KT 15/M02 A3017 RMK A01 T01481019  RH  032%=      5-min Rain = 0
KTIS 141655Z 22012KT 16/M02 A3017 RMK A01 T01571020  RH  030%=      5-min Rain = 0
KTIS 141700Z 23013G18KT 17/M02 A3017 RMK A01 T01691019  RH  028%=      5-min Rain = 0
KTIS 141705Z 22016G21KT 18/M02 A3017 RMK A01 T01781019  RH  026%=      5-min Rain = 0
KTIS 141710Z 22017KT 18/M02 A3017 RMK A01 T01811021  RH  026%=      5-min Rain = 0
KTIS 141715Z 22016KT 18/M02 A3016 RMK A01 T01811019  RH  026%=      5-min Rain = 0
KTIS 141720Z 22017KT 18/M02 A3016 RMK A01 T01831018  RH  026%=      5-min Rain = 0
KTIS 141725Z 22016KT 18/M02 A3016 RMK A01 T01841017  RH  026%=      5-min Rain = 0
KTIS 141730Z 23016KT 19/M02 A3016 RMK A01 T01881016  RH  025%=      5-min Rain = 0
KTIS 141735Z 23016G21KT 19/M02 A3015 RMK A01 T01911018  RH  024%=      5-min Rain = 0
KTIS 141740Z 23017KT 20/M02 A3015 RMK A01 T01961020  RH  023%=      5-min Rain = 0
KTIS 141745Z 22016KT 20/M02 A3015 RMK A01 T02001020  RH  023%=      5-min Rain = 0
KTIS 141750Z 22016G21KT 20/M02 A3015 RMK A01 T02041022  RH  022%=      5-min Rain = 0
KTIS 141755Z 24015KT 21/M02 A3014 RMK A01 T02081020  RH  022%=      5-min Rain = 0
KTIS 141800Z 24016G22KT 21/M02 A3014 RMK A01 T02091020  RH  022%=      5-min Rain = 0
KTIS 141805Z 24015G21KT 21/M02 A3014 RMK A01 T02081019  RH  022%=      5-min Rain = 0
KTIS 141810Z 24014KT 21/M02 A3014 RMK A01 T02111016  RH  022%=      5-min Rain = 0
KTIS 141815Z 24016KT 21/M02 A3013 RMK A01 T02121018  RH  022%=      5-min Rain = 0
KTIS 141820Z 23016G21KT 22/M02 A3013 RMK A01 T02151018  RH  021%=      5-min Rain = 0
KTIS 141825Z 23019KT 22/M02 A3013 RMK A01 T02161024  RH  020%=      5-min Rain = 0
KTIS 141830Z 23017KT 22/M02 A3013 RMK A01 T02161022  RH  020%=      5-min Rain = 0
KTIS 141835Z 22016KT 22/M02 A3012 RMK A01 T02201021  RH  020%=      5-min Rain = 0
KTIS 141840Z 22016KT 22/M02 A3012 RMK A01 T02221020  RH  020%=      5-min Rain = 0
KTIS 141845Z 23015G21KT 22/M02 A3012 RMK A01 T02231022  RH  020%=      5-min Rain = 0
KTIS 141850Z 22016G23KT 23/M02 A3012 RMK A01 T02261021  RH  019%=      5-min Rain = 0
KTIS 141855Z 22015G22KT 23/M02 A3012 RMK A01 T02301018  RH  019%=      5-min Rain = 0
KTIS 141900Z 23018G23KT 23/M02 A3011 RMK A01 T02311022  RH  019%=      5-min Rain = 0
KTIS 141905Z 23017G22KT 23/M02 A3011 RMK A01 T02271022  RH  019%=      5-min Rain = 0
KTIS 141910Z 23016G22KT 23/M02 A301 RMK A01 T02301023  RH  019%=      5-min Rain = 0
KTIS 141915Z 22015KT 23/M02 A301 RMK A01 T02331024  RH  018%=      5-min Rain = 0
KTIS 141920Z 22019KT 24/M03 A3009 RMK A01 T02351029  RH  017%=      5-min Rain = 0
KTIS 141925Z 23016G22KT 23/M03 A3009 RMK A01 T02341033  RH  017%=      5-min Rain = 0
KTIS 141930Z 23015G20KT 24/M03 A3009 RMK A01 T02381032  RH  017%=      5-min Rain = 0
KTIS 141935Z 23017G22KT 24/M03 A3008 RMK A01 T02401032  RH  016%=      5-min Rain = 0
KTIS 141940Z 24017G23KT 24/M03 A3008 RMK A01 T02391032  RH  016%=      5-min Rain = 0
KTIS 141945Z 22013G19KT 24/M03 A3007 RMK A01 T02391029  RH  017%=      5-min Rain = 0
KTIS 141950Z 23016G22KT 24/M03 A3007 RMK A01 T02431028  RH  017%=      5-min Rain = 0
KTIS 141955Z 23018KT 24/M03 A3007 RMK A01 T02431029  RH  016%=      5-min Rain = 0
KTIS 142000Z 24017G23KT 24/M03 A3006 RMK A01 T02441027  RH  017%=      5-min Rain = 0
KTIS 142005Z 22015G21KT 24/M03 A3006 RMK A01 T02441029  RH  016%=      5-min Rain = 0
KTIS 142010Z 21015KT 25/M03 A3005 RMK A01 T02471028  RH  016%=      5-min Rain = 0
KTIS 142015Z 22019G27KT 25/M04 A3005 RMK A01 T02501040  RH  015%=      5-min Rain = 0
KTIS 142020Z 22020G27KT 25/M04 A3004 RMK A01 T02501044  RH  014%=      5-min Rain = 0
KTIS 142025Z 22020G26KT 25/M04 A3004 RMK A01 T02531044  RH  014%=      5-min Rain = 0
KTIS 142030Z 23018G29KT 26/M04 A3003 RMK A01 T02551043  RH  014%=      5-min Rain = 0
KTIS 142035Z 23020G32KT 25/M05 A3003 RMK A01 T02531045  RH  014%=      5-min Rain = 0
KTIS 142040Z 23018G25KT 26/M04 A3003 RMK A01 T02581042  RH  014%=      5-min Rain = 0
KTIS 142045Z 23022G29KT 26/M04 A3002 RMK A01 T02581043  RH  014%=      5-min Rain = 0
KTIS 142050Z 23023G30KT 26/M04 A3002 RMK A01 T02571044  RH  014%=      5-min Rain = 0
KTIS 142055Z 24022G29KT 26/M05 A3002 RMK A01 T02571045  RH  013%=      5-min Rain = 0
KTIS 142100Z 23021G27KT 26/M04 A3002 RMK A01 T02591044  RH  013%=      5-min Rain = 0
KTIS 142105Z 24021G28KT 26/M04 A3001 RMK A01 T02601043  RH  013%=      5-min Rain = 0
KTIS 142110Z 24022G30KT 26/M04 A3001 RMK A01 T02611043  RH  013%=      5-min Rain = 0
KTIS 142115Z 24022G27KT 26/M05 A3001 RMK A01 T02591045  RH  013%=      5-min Rain = 0
KTIS 142120Z 23023G32KT 26/M04 A3001 RMK A01 T02601038  RH  014%=      5-min Rain = 0
KTIS 142125Z 23021G27KT 26/M04 A30 RMK A01 T02601039  RH  014%=      5-min Rain = 0
KTIS 142130Z 22022G32KT 26/M03 A30 RMK A01 T02611030  RH  015%=      5-min Rain = 0
KTIS 142135Z 23023G30KT 26/M03 A30 RMK A01 T02631028  RH  015%=      5-min Rain = 0
KTIS 142140Z 23022G32KT 26/M03 A30 RMK A01 T02621029  RH  015%=      5-min Rain = 0
KTIS 142145Z 23021G26KT 26/M03 A30 RMK A01 T02621027  RH  015%=      5-min Rain = 0
KTIS 142150Z 22022G28KT 26/M03 A2999 RMK A01 T02621026  RH  015%=      5-min Rain = 0
KTIS 142155Z 23022G28KT 26/M03 A2999 RMK A01 T02611025  RH  015%=      5-min Rain = 0
KTIS 142200Z 23021G29KT 26/M03 A2999 RMK A01 T02621025  RH  015%=      5-min Rain = 0
KTIS 142205Z 22022G30KT 26/M02 A2999 RMK A01 T02631024  RH  015%=      5-min Rain = 0
KTIS 142210Z 22023G31KT 26/M03 A2998 RMK A01 T02621026  RH  015%=      5-min Rain = 0
KTIS 142215Z 22021G28KT 26/M03 A2998 RMK A01 T02621026  RH  015%=      5-min Rain = 0
KTIS 142220Z 22019KT 26/M02 A2998 RMK A01 T02621023  RH  015%=      5-min Rain = 0
KTIS 142225Z 23019G29KT 26/M01 A2998 RMK A01 T02631013  RH  016%=      5-min Rain = 0
KTIS 142230Z 24021G27KT 26/M01 A2998 RMK A01 T02631009  RH  017%=      5-min Rain = 0
KTIS 142235Z 23021G26KT 26/M01 A2998 RMK A01 T02601009  RH  017%=      5-min Rain = 0
KTIS 142240Z 23020G25KT 26/M01 A2998 RMK A01 T02571006  RH  018%=      5-min Rain = 0
KTIS 142245Z 24020G26KT 26/M00 A2998 RMK A01 T02571003  RH  018%=      5-min Rain = 0
KTIS 142250Z 24020G27KT 26/M00 A2998 RMK A01 T02571002  RH  019%=      5-min Rain = 0
KTIS 142255Z 24021G26KT 26/M00 A2997 RMK A01 T02561003  RH  018%=      5-min Rain = 0
KTIS 142300Z 24017G22KT 26/M00 A2997 RMK A01 T02551001  RH  019%=      5-min Rain = 0
KTIS 142305Z 24017G23KT 25/00 A2997 RMK A01 T02530000  RH  019%=      5-min Rain = 0
KTIS 142310Z 24017G25KT 25/00 A2997 RMK A01 T02500002  RH  020%=      5-min Rain = 0
KTIS 142315Z 25019G24KT 25/00 A2997 RMK A01 T02500003  RH  020%=      5-min Rain = 0
KTIS 142320Z 24016G22KT 25/00 A2997 RMK A01 T02490004  RH  020%=      5-min Rain = 0
KTIS 142325Z 23015G20KT 25/01 A2997 RMK A01 T02480006  RH  021%=      5-min Rain = 0
KTIS 142330Z 24016KT 25/01 A2996 RMK A01 T02480008  RH  021%=      5-min Rain = 0
KTIS 142335Z 23014G19KT 25/01 A2996 RMK A01 T02460008  RH  021%=      5-min Rain = 0
KTIS 142340Z 23016G21KT 25/01 A2996 RMK A01 T02450010  RH  022%=      5-min Rain = 0
KTIS 142345Z 23017G23KT 24/01 A2996 RMK A01 T02440013  RH  022%=      5-min Rain = 0
KTIS 142350Z 24016KT 24/01 A2996 RMK A01 T02430014  RH  022%=      5-min Rain = 0
KTIS 142355Z 25013KT 24/M01 A2997 RMK A01 T02391006  RH  020%=      5-min Rain = 0
KTIS 150000Z 26009KT 23/M02 A2997 RMK A01 T02331015  RH  019%=      5-min Rain = 0
KTIS 150005Z 26007KT 23/M02 A2997 RMK A01 T02271019  RH  019%=      5-min Rain = 0
KTIS 150010Z 25006KT 22/M02 A2997 RMK A01 T02231021  RH  020%=      5-min Rain = 0
KTIS 150015Z 25005KT 22/M02 A2997 RMK A01 T02161022  RH  020%=      5-min Rain = 0
KTIS 150020Z 24006KT 21/M03 A2997 RMK A01 T02101025  RH  021%=      5-min Rain = 0
KTIS 150025Z 25004KT 20/M03 A2997 RMK A01 T02041027  RH  021%=      5-min Rain = 0
KTIS 150030Z 23005KT 20/M03 A2997 RMK A01 T02001028  RH  022%=      5-min Rain = 0
KTIS 150035Z 25006KT 20/M03 A2997 RMK A01 T01981029  RH  022%=      5-min Rain = 0
KTIS 150040Z 25007KT 20/M03 A2997 RMK A01 T01981029  RH  022%=      5-min Rain = 0
KTIS 150045Z 23005KT 20/M03 A2997 RMK A01 T01961029  RH  022%=      5-min Rain = 0
KTIS 150050Z 23006KT 19/M03 A2997 RMK A01 T01921030  RH  022%=      5-min Rain = 0
KTIS 150055Z 23005KT 18/M03 A2997 RMK A01 T01841030  RH  023%=      5-min Rain = 0
KTIS 150100Z 23005KT 19/M03 A2997 RMK A01 T01851029  RH  023%=      5-min Rain = 0
KTIS 150105Z 23005KT 19/M03 A2997 RMK A01 T01861029  RH  023%=      5-min Rain = 0
KTIS 150110Z 24006KT 18/M03 A2997 RMK A01 T01821028  RH  024%=      5-min Rain = 0
KTIS 150115Z 25007KT 18/M03 A2997 RMK A01 T01751028  RH  025%=      5-min Rain = 0
KTIS 150120Z 25007KT 17/M02 A2997 RMK A01 T01701019  RH  028%=      5-min Rain = 0
KTIS 150125Z 24007KT 17/M01 A2997 RMK A01 T01691013  RH  029%=      5-min Rain = 0
KTIS 150130Z 24006KT 17/M01 A2998 RMK A01 T01681013  RH  030%=      5-min Rain = 0
KTIS 150135Z 24006KT 16/M01 A2998 RMK A01 T01641009  RH  031%=      5-min Rain = 0
KTIS 150140Z 22007KT 17/M01 A2998 RMK A01 T01671007  RH  031%=      5-min Rain = 0
KTIS 150145Z 22009KT 17/M01 A2997 RMK A01 T01681008  RH  030%=      5-min Rain = 0
KTIS 150150Z 22011KT 17/M01 A2997 RMK A01 T01701010  RH  030%=      5-min Rain = 0
KTIS 150155Z 22012KT 18/M01 A2997 RMK A01 T01781009  RH  028%=      5-min Rain = 0
KTIS 150200Z 22012KT 18/M01 A2997 RMK A01 T01841008  RH  028%=      5-min Rain = 0
KTIS 150205Z 21012KT 18/M01 A2997 RMK A01 T01841008  RH  028%=      5-min Rain = 0
KTIS 150210Z 22012KT 18/M01 A2997 RMK A01 T01831008  RH  028%=      5-min Rain = 0
KTIS 150215Z 22013KT 18/M01 A2997 RMK A01 T01831008  RH  028%=      5-min Rain = 0
KTIS 150220Z 22014KT 18/M01 A2998 RMK A01 T01821008  RH  028%=      5-min Rain = 0
KTIS 150225Z 22012KT 18/M01 A2997 RMK A01 T01801009  RH  028%=      5-min Rain = 0
KTIS 150230Z 22012KT 18/M01 A2998 RMK A01 T01781009  RH  028%=      5-min Rain = 0
KTIS 150235Z 22011KT 18/M01 A2998 RMK A01 T01771009  RH  029%=      5-min Rain = 0
KTIS 150240Z 22011KT 18/M01 A2998 RMK A01 T01761009  RH  029%=      5-min Rain = 0
KTIS 150245Z 22012KT 18/M01 A2998 RMK A01 T01751009  RH  029%=      5-min Rain = 0
KTIS 150250Z 22012KT 17/M01 A2998 RMK A01 T01741010  RH  029%=      5-min Rain = 0
KTIS 150255Z 22011KT 17/M01 A2998 RMK A01 T01731010  RH  029%=      5-min Rain = 0
KTIS 150300Z 22011KT 17/M01 A2998 RMK A01 T01741010  RH  029%=      5-min Rain = 0
KTIS 150305Z 22010KT 17/M01 A2998 RMK A01 T01741010  RH  029%=      5-min Rain = 0
KTIS 150310Z 22009KT 17/M01 A2998 RMK A01 T01711010  RH  029%=      5-min Rain = 0
KTIS 150315Z 22010KT 17/M01 A2998 RMK A01 T01681011  RH  030%=      5-min Rain = 0
KTIS 150320Z 22011KT 17/M01 A2998 RMK A01 T01681011  RH  030%=      5-min Rain = 0
KTIS 150325Z 22014KT 18/M01 A2998 RMK A01 T01751009  RH  029%=      5-min Rain = 0
KTIS 150330Z 22014KT 18/M01 A2998 RMK A01 T01801006  RH  029%=      5-min Rain = 0
KTIS 150335Z 22013KT 18/M01 A2999 RMK A01 T01801005  RH  029%=      5-min Rain = 0
KTIS 150340Z 21013G18KT 18/M00 A2999 RMK A01 T01791004  RH  029%=      5-min Rain = 0
KTIS 150345Z 21012G17KT 18/M00 A2999 RMK A01 T01771004  RH  030%=      5-min Rain = 0
KTIS 150350Z 21012KT 17/M00 A2999 RMK A01 T01741003  RH  030%=      5-min Rain = 0
KTIS 150355Z 21012KT 17/M00 A2999 RMK A01 T01721003  RH  031%=      5-min Rain = 0
KTIS 150400Z 22011KT 17/M00 A2999 RMK A01 T01701003  RH  031%=      5-min Rain = 0
KTIS 150405Z 22011KT 17/M00 A2999 RMK A01 T01681002  RH  032%=      5-min Rain = 0
KTIS 150410Z 22012KT 17/M00 A2999 RMK A01 T01671002  RH  032%=      5-min Rain = 0
KTIS 150415Z 23010KT 17/M00 A2999 RMK A01 T01651002  RH  032%=      5-min Rain = 0
KTIS 150420Z 23011KT 17/M00 A2999 RMK A01 T01651001  RH  033%=      5-min Rain = 0
KTIS 150425Z 24012KT 17/00 A2999 RMK A01 T016600-0  RH  033%=      5-min Rain = 0
KTIS 150430Z 24012KT 17/00 A2999 RMK A01 T01650001  RH  033%=      5-min Rain = 0
KTIS 150435Z 24012KT 16/00 A2999 RMK A01 T01640003  RH  034%=      5-min Rain = 0
KTIS 150440Z 23012KT 17/00 A2999 RMK A01 T01650004  RH  034%=      5-min Rain = 0
KTIS 150445Z 23010KT 16/01 A2999 RMK A01 T01620006  RH  035%=      5-min Rain = 0
KTIS 150450Z 24009KT 16/01 A2998 RMK A01 T01610007  RH  036%=      5-min Rain = 0
KTIS 150455Z 24010KT 16/01 A2998 RMK A01 T01610008  RH  036%=      5-min Rain = 0
KTIS 150500Z 25011KT 16/01 A2998 RMK A01 T01610008  RH  036%=      5-min Rain = 0
KTIS 150505Z 25010KT 16/01 A2998 RMK A01 T01610007  RH  036%=      5-min Rain = 0
KTIS 150510Z 24010KT 16/01 A2998 RMK A01 T01600005  RH  035%=      5-min Rain = 0
KTIS 150515Z 24010KT 16/00 A2998 RMK A01 T01590004  RH  035%=      5-min Rain = 0
KTIS 150520Z 23009KT 15/00 A2998 RMK A01 T01540004  RH  036%=      5-min Rain = 0
KTIS 150525Z 23009KT 15/00 A2998 RMK A01 T01500004  RH  037%=      5-min Rain = 0
KTIS 150530Z 23010KT 15/00 A2998 RMK A01 T01530004  RH  037%=      5-min Rain = 0
KTIS 150535Z 21009KT 15/00 A2999 RMK A01 T01520003  RH  037%=      5-min Rain = 0
KTIS 150540Z 19009KT 14/00 A2999 RMK A01 T01400002  RH  039%=      5-min Rain = 0
KTIS 150545Z 20008KT 13/00 A2999 RMK A01 T01330004  RH  042%=      5-min Rain = 0
KTIS 150550Z 22009KT 13/00 A2999 RMK A01 T01320004  RH  042%=      5-min Rain = 0
KTIS 150555Z 23010KT 14/00 A2998 RMK A01 T01360003  RH  040%=      5-min Rain = 0

Page generated in 0.0328 seconds.